Minneota, MN (56264)

7:01 AM CDT on August 27, 2016 (GMT -0500)
Madison Ave N | | Change Station

Elev 1165 ft 44.56 °N, 95.99 °W | Updated 4 seconds ago

Light Rain
Light Rain Mist
60.0 °F
Feels Like 60.0 °F
N
0.0
Wind Variable Wind from SSE
Gusts 0.0 mph

Today
High -- | Low -- °F
--% Chance of Precip.
Yesterday
High -- | Low -- °F
Precip. -- in
Pressure 30.04 in
Visibility 5.0 miles
Clouds Overcast 4000 ft
Dew Point 57 °F
Humidity 90%
Rainfall 0.02 in
Snow Depth Not available.
6:41 AM 8:08 PM
Waning Crescent, 25% visible
METAR KMML 271156Z AUTO 00000KT 5SM -RA BR OVC040 16/15 A3004 RMK AO2 SLP172 P0008 60014 70014 T01560150 10172 20156 55000
Pressure 30.04 in
Visibility 5.0 miles
Clouds Overcast 4000 ft
Dew Point 57 °F
Humidity 90%
Rainfall 0.02 in
Snow Depth Not available.
6:41 AM 8:08 PM
Waning Crescent, 25% visible
METAR KMML 271156Z AUTO 00000KT 5SM -RA BR OVC040 16/15 A3004 RMK AO2 SLP172 P0008 60014 70014 T01560150 10172 20156 55000

10-Day Weather Forecast

Almanac

Astronomy

Aug. 27, 2016 Rise Set
Actual Time
Civil Twilight
Nautical Twilight
Astronomical Twilight
Moon
Length of Visible Light
Length of Day
Tomorrow will be .
, % of the Moon is Illuminated

Today's Extremes

State Highs State Lows

Community

WunderPhotos

Upload Photos

1,935,325 photos uploaded!

WunderBlog® & News

Nearby

Air Quality

  Air Quality AQ Index Pollutant
Not available.

Snow Depth

Station Depth Elevation

Earthquake Activity

City Distance Mag. Time & Date
Minimum magnitude displayed is 2.5.

Coastal Water Temperatures

Place Temperature

Stations

Nearby Weather Stations

Station Location Temp. Windchill Dew Point Humidity Wind Precip. Elev Updated Type
                   

Watches & Warnings

There are currently no watches in effect.